This is the latest recevied weather packets stored in our database for station/object IZ5ILU-16. If no packets are shown the sender has not sent any weather packets the latest 10 day(s).
| Time | Temp. | Humidity | Pressure | Rain* | Wind** | Luminosity | Snow |
|---|---|---|---|---|---|---|---|
| 1788406903 | 22.22° C | 78% | 1019.1 hPa | 0 mm | - | - | - |
| 1788406303 | 22.22° C | 78% | 1019 hPa | 0 mm | - | - | - |
| 1788405703 | 22.22° C | 78% | 1018.9 hPa | 0 mm | - | - | - |
| 1788405103 | 22.22° C | 78% | 1018.9 hPa | 0 mm | - | - | - |
| 1788404503 | 22.22° C | 77% | 1018.9 hPa | 0 mm | - | - | - |
| 1788403903 | 22.22° C | 77% | 1019 hPa | 0 mm | - | - | - |
| 1788403303 | 22.22° C | 77% | 1019.1 hPa | 0 mm | - | - | - |
| 1788402703 | 22.78° C | 78% | 1019.1 hPa | 0 mm | - | - | - |
| 1788402103 | 22.78° C | 77% | 1019.1 hPa | 0 mm | - | - | - |
| 1788400303 | 22.78° C | 78% | 1019.3 hPa | 0 mm | - | - | - |
| 1788379903 | 25° C | 71% | 1018.4 hPa | 0 mm | - | - | - |
| 1788373903 | 26.67° C | 68% | 1018 hPa | 0 mm | - | - | - |
| 1788369103 | 27.78° C | 60% | 1017.4 hPa | 0 mm | - | - | - |
| 1788362503 | 30° C | 55% | 1017.5 hPa | 0 mm | - | - | - |
| 1788360103 | 30° C | 57% | 1017.4 hPa | 0 mm | - | - | - |
| 1788358903 | 30.56° C | 57% | 1017.6 hPa | 0 mm | - | - | - |
| 1788358303 | 30° C | 58% | 1017.5 hPa | 0 mm | - | - | - |
| 1788357703 | 30° C | 56% | 1017.5 hPa | 0 mm | - | - | - |
| 1788355903 | 28.89° C | 57% | 1018 hPa | 0 mm | - | - | - |
| 1788355303 | 28.33° C | 57% | 1018.1 hPa | 0 mm | - | - | - |
| 1788354703 | 28.33° C | 58% | 1018.3 hPa | 0 mm | - | - | - |
| 1788354103 | 28.33° C | 58% | 1018.2 hPa | 0 mm | - | - | - |
| 1788352303 | 28.33° C | 57% | 1018.4 hPa | 0 mm | - | - | - |
| 1788351703 | 28.33° C | 58% | 1018.4 hPa | 0 mm | - | - | - |
| 1788351103 | 27.78° C | 59% | 1018.7 hPa | 0 mm | - | - | - |
* Rain latest hour (hover to see other rain measurements)
** Current wind speed in m/s (hover to see current wind gust speed)